Latest Coastal Weather Observations for Maria Island

IDT60701

Issued at 12:35 pm EDT Friday 28 November 2014 (issued every 10 minutes, with the page automatically refreshed every 10 minutes)

About coastal observations | Map of coastal stations | Coastal observations for TAS | Marine services | Other Formats
Station Details ID: 092124 Name: MARIA ISLAND (POINT LESUEUR) Lat: -42.66 Lon: 148.02 Height: 28.0 m
Data from the previous 72 hours. | See also: Recent months at Maria Island
Date/Time
EDT
Temp

°C
Wind Pressure Rain
since 9am
mm
Weather Cloud Vis
km
Sea
Height
m
Swell
Dir
 
Speed
knots
Gust
knots
hPa Trend Height
m
Period
s
Dir
28/12:30pm 15.9 S 9 11 1021.8 - 0.0 - - - - - - -
28/12:00pm 15.0 S 10 13 1022.1 - 0.0 - - - - - - -
28/11:30am 14.9 S 12 14 1022.4 - 0.0 - - - - - - -
28/11:00am 14.9 S 5 8 1022.6 - 0.0 - - - - - - -
28/10:30am 14.6 NNE 3 4 1022.7 - 0.0 - - - - - - -
28/10:00am 13.9 S 3 5 1022.8 - 0.0 - - - - - - -
28/09:30am 13.2 NNE 2 4 1023.2 - 0.0 - - - - - - -
28/09:00am 12.3 NW 3 6 1023.3 - 0.0 - - - - - - -
28/08:30am 12.0 W 7 8 1023.4 - 0.0 - - - - - - -
28/08:00am 11.4 W 10 13 1023.5 - 0.0 - - - - - - -
28/07:30am 11.2 WSW 8 11 1023.4 - 0.0 - - - - - - -
28/07:00am 11.1 SW 5 7 1023.3 - 0.0 - - - - - - -
28/06:30am 11.0 SW 6 9 1023.0 - 0.0 - - - - - - -
28/06:00am 11.0 SW 7 10 1023.0 - 0.0 - - - - - - -
28/05:30am 11.0 SSW 7 9 1022.8 - 0.0 - - - - - - -
28/05:00am 11.1 SW 8 10 1022.9 - 0.0 - - - - - - -
28/04:30am 11.3 SW 7 9 1022.7 - 0.0 - - - - - - -
28/04:00am 11.3 SW 6 8 1022.6 - 0.0 - - - - - - -
28/03:30am 11.3 SSW 4 5 1022.5 - 0.0 - - - - - - -
28/03:00am 11.3 S 4 6 1022.4 - 0.0 - - - - - - -
28/02:30am 11.3 S 6 7 1022.7 - 0.0 - - - - - - -
28/02:00am 11.3 S 7 9 1023.0 - 0.0 - - - - - - -
28/01:30am 11.4 S 7 9 1023.2 - 0.0 - - - - - - -
28/01:00am 11.4 S 6 9 1023.4 - 0.0 - - - - - - -
28/12:30am 11.3 S 4 6 1023.7 - 0.0 - - - - - - -
28/12:00am 11.4 S 6 8 1023.8 - 0.0 - - - - - - -
 
Date/Time
EDT
Temp

°C
Wind Pressure Rain
since 9am
mm
Weather Cloud Vis
km
Sea
Height
m
Swell
Dir
 
Speed
knots
Gust
knots
hPa Trend Height
m
Period
s
Dir
27/11:30pm 11.5 S 8 10 1024.0 - 0.0 - - - - - - -
27/11:00pm 11.6 SSW 11 12 1024.0 - 0.0 - - - - - - -
27/10:30pm 11.7 S 13 15 1024.2 - 0.0 - - - - - - -
27/10:00pm 11.9 SSW 12 13 1024.0 - 0.0 - - - - - - -
27/09:30pm 11.8 SSW 10 12 1024.0 - 0.0 - - - - - - -
27/09:00pm 12.0 SSW 13 16 1023.9 - 0.0 - - - - - - -
27/08:30pm 12.3 SSW 13 15 1023.6 - 0.0 - - - - - - -
27/08:00pm 12.7 S 11 14 1023.4 - 0.0 - - - - - - -
27/07:30pm 13.4 SSW 16 20 1022.9 - 0.0 - - - - - - -
27/07:00pm 13.7 SSW 19 22 1022.8 - 0.0 - - - - - - -
27/06:30pm 14.2 SSW 21 25 1022.4 - 0.0 - - - - - - -
27/06:00pm 14.4 SSW 22 26 1022.2 - 0.0 - - - - - - -
27/05:30pm 14.7 SSW 21 25 1022.1 - 0.0 - - - - - - -
27/05:00pm 14.9 SSW 21 24 1022.3 - 0.0 - - - - - - -
27/04:30pm 15.2 SSW 22 25 1022.3 - 0.0 - - - - - - -
27/04:00pm 15.4 SSW 22 25 1022.1 - 0.0 - - - - - - -
27/03:30pm 15.7 S 20 24 1022.3 - 0.0 - - - - - - -
27/03:00pm 15.4 S 21 24 1022.1 - 0.0 - - - - - - -
27/02:30pm 15.7 S 20 24 1022.1 - 0.0 - - - - - - -
27/02:00pm 16.2 S 22 25 1021.9 - 0.0 - - - - - - -
27/01:30pm 15.3 S 23 26 1022.0 - 0.0 - - - - - - -
27/01:00pm 15.0 S 21 24 1022.0 - 0.0 - - - - - - -
27/12:30pm 15.7 S 22 25 1022.2 - 0.0 - - - - - - -
27/12:00pm 15.4 SSW 20 23 1022.4 - 0.0 - - - - - - -
27/11:30am 15.5 SSW 22 26 1022.5 - 0.0 - - - - - - -
27/11:00am 15.1 SSW 19 25 1022.6 - 0.0 - - - - - - -
27/10:30am 14.2 SSW 20 26 1022.7 - 0.0 - - - - - - -
27/10:00am 15.0 SSW 19 25 1022.8 - 0.0 - - - - - - -
27/09:30am 13.9 SW 24 32 1022.7 - 0.0 - - - - - - -
27/09:19am 13.7 SW 22 33 1022.4 - 0.0 - - - - - - -
27/09:00am 13.6 SW 17 22 1022.7 - 0.4 - - - - - - -
27/08:30am 12.6 SW 15 20 1022.7 - 0.4 - - - - - - -
27/08:00am 12.5 WSW 9 15 1022.6 - 0.4 - - - - - - -
27/07:30am 11.5 W 8 12 1022.4 - 0.4 - - - - - - -
27/07:00am 11.2 WNW 9 10 1022.0 - 0.4 - - - - - - -
27/06:30am 11.2 W 10 13 1021.7 - 0.4 - - - - - - -
27/06:00am 11.1 W 11 16 1021.5 - 0.4 - - - - - - -
27/05:30am 10.6 WNW 9 11 1021.2 - 0.4 - - - - - - -
27/05:00am 10.7 WNW 8 11 1020.8 - 0.4 - - - - - - -
27/04:30am 11.0 WNW 9 12 1020.4 - 0.4 - - - - - - -
27/04:00am 11.4 WSW 14 20 1020.2 - 0.4 - - - - - - -
27/03:30am 11.4 WSW 15 22 1020.1 - 0.4 - - - - - - -
27/03:00am 11.4 WSW 14 22 1019.9 - 0.4 - - - - - - -
27/02:30am 11.3 WSW 14 18 1020.0 - 0.4 - - - - - - -
27/02:00am 11.3 W 9 14 1020.1 - 0.4 - - - - - - -
27/01:30am 11.2 W 7 9 1020.3 - 0.4 - - - - - - -
27/01:00am 11.5 W 8 10 1020.4 - 0.4 - - - - - - -
27/12:30am 11.3 W 8 10 1020.4 - 0.4 - - - - - - -
27/12:00am 11.8 W 9 12 1020.3 - 0.4 - - - - - - -
 
Date/Time
EDT
Temp

°C
Wind Pressure Rain
since 9am
mm
Weather Cloud Vis
km
Sea
Height
m
Swell
Dir
 
Speed
knots
Gust
knots
hPa Trend Height
m
Period
s
Dir
26/11:30pm 12.0 W 9 13 1020.2 - 0.4 - - - - - - -
26/11:00pm 12.2 W 11 15 1020.2 - 0.4 - - - - - - -
26/10:30pm 12.6 WSW 17 23 1020.0 - 0.4 - - - - - - -
26/10:00pm 12.9 SW 19 26 1019.6 - 0.4 - - - - - - -
26/09:30pm 12.8 SW 15 19 1019.5 - 0.4 - - - - - - -
26/09:00pm 12.9 SW 18 23 1018.9 - 0.4 - - - - - - -
26/08:30pm 13.2 SW 20 26 1018.3 - 0.4 - - - - - - -
26/08:00pm 12.8 SSW 15 18 1018.0 - 0.4 - - - - - - -
26/07:30pm 12.9 SSW 20 24 1017.4 - 0.4 - - - - - - -
26/07:00pm 13.5 SSW 19 22 1017.2 - 0.4 - - - - - - -
26/06:30pm 13.6 SSW 20 23 1016.6 - 0.4 - - - - - - -
26/06:00pm 14.5 SSW 19 23 1016.1 - 0.4 - - - - - - -
26/05:30pm 14.4 SSW 20 24 1016.1 - 0.4 - - - - - - -
26/05:00pm 14.8 SSW 20 26 1015.7 - 0.4 - - - - - - -
26/04:30pm 14.4 SSW 21 24 1015.6 - 0.4 - - - - - - -
26/04:00pm 13.9 SSW 21 25 1015.4 - 0.4 - - - - - - -
26/03:30pm 14.1 SSW 23 28 1015.5 - 0.4 - - - - - - -
26/03:00pm 13.7 SSW 24 29 1015.0 - 0.4 Recent precip. - - - - - -
26/02:30pm 14.2 SSW 22 26 1014.9 - 0.4 - - - - - - -
26/02:00pm 12.1 SSW 27 29 1014.7 - 0.2 - - - - - - -
26/01:30pm 14.2 S 17 20 1014.7 - 0.0 - - - - - - -
26/01:00pm 14.8 WSW 16 18 1014.5 - 0.0 - - - - - - -
26/12:30pm 13.9 S 18 22 1014.3 - 0.0 - - - - - - -
26/12:00pm 13.6 SSW 21 24 1014.1 - 0.0 - - - - - - -
26/11:53am 14.0 SSW 20 23 1014.1 - 0.0 - - - - - - -
26/11:30am 14.5 WSW 12 18 1014.1 - 0.0 - - - - - - -
26/11:00am 12.7 SW 14 21 1014.0 - 0.0 - - - - - - -
26/10:30am 14.0 WSW 17 23 1013.2 - 0.0 - - - - - - -
26/10:00am 14.3 WSW 16 22 1012.8 - 0.0 - - - - - - -
26/09:49am 14.0 WSW 18 29 1012.7 - 0.0 - - - - - - -
26/09:30am 14.0 W 18 24 1012.4 - 0.0 - - - - - - -
26/09:00am 13.7 W 20 31 1012.0 - 0.0 - - - - - - -
26/08:54am 14.4 W 18 31 1012.0 - 0.0 - - - - - - -
26/08:30am 14.2 W 14 22 1011.8 - 0.0 - - - - - - -
26/08:00am 13.7 W 14 21 1011.5 - 0.0 - - - - - - -
26/07:30am 13.5 WSW 11 13 1011.1 - 0.0 - - - - - - -
26/07:00am 13.2 W 18 23 1010.7 - 0.0 - - - - - - -
26/06:30am 12.0 SSW 11 14 1010.4 - 0.0 - - - - - - -
26/06:00am 12.0 WSW 7 12 1010.0 - 0.0 - - - - - - -
26/05:30am 11.3 S 6 8 1009.9 - 0.0 - - - - - - -
26/05:00am 11.3 SSW 5 7 1009.4 - 0.0 - - - - - - -
26/04:30am 11.8 NNW 10 13 1009.1 - 0.0 - - - - - - -
26/04:00am 12.5 NW 12 14 1008.5 - 0.0 - - - - - - -
26/03:30am 12.7 N 15 19 1008.3 - 0.0 - - - - - - -
26/03:00am 12.9 N 18 22 1008.1 - 0.0 - - - - - - -
26/02:30am 13.0 N 19 22 1008.4 - 0.0 - - - - - - -
26/02:00am 13.0 N 18 20 1008.5 - 0.0 - - - - - - -
26/01:30am 13.1 N 16 20 1008.6 - 0.0 - - - - - - -
26/01:00am 12.8 NNW 14 17 1009.4 - 0.0 - - - - - - -
26/12:30am 12.8 NNW 15 21 1009.8 - 0.0 - - - - - - -
26/12:00am 12.7 NNW 14 18 1010.3 - 0.0 - - - - - - -
 
Date/Time
EDT
Temp

°C
Wind Pressure Rain
since 9am
mm
Weather Cloud Vis
km
Sea
Height
m
Swell
Dir
 
Speed
knots
Gust
knots
hPa Trend Height
m
Period
s
Dir
25/11:30pm 12.6 NW 13 20 1010.7 - 0.0 - - - - - - -
25/11:00pm 12.4 NW 14 21 1011.1 - 0.0 - - - - - - -
25/10:30pm 12.3 NW 10 16 1011.2 - 0.0 - - - - - - -
25/10:00pm 12.6 NNW 8 11 1011.5 - 0.0 - - - - - - -
25/09:30pm 13.0 NW 11 15 1011.3 - 0.0 - - - - - - -
25/09:00pm 13.2 WNW 9 14 1010.9 - 0.0 - - - - - - -
25/08:30pm 13.4 W 10 15 1010.8 - 0.0 - - - - - - -
25/08:00pm 13.7 W 14 17 1010.6 - 0.0 - - - - - - -
25/07:30pm 14.5 W 14 22 1010.0 - 0.0 - - - - - - -
25/07:00pm 15.0 W 11 16 1009.6 - 0.0 - - - - - - -
25/06:30pm 15.7 W 17 26 1008.9 - 0.0 - - - - - - -
25/06:24pm 15.7 W 18 29 1008.9 - 0.0 - - - - - - -
25/06:00pm 15.8 W 22 31 1008.6 - 0.0 - - - - - - -
25/05:32pm 16.6 W 15 27 1008.3 - 0.0 - - - - - - -
25/05:30pm 16.5 WSW 13 20 1008.4 - 0.0 - - - - - - -
25/05:00pm 15.6 W 17 25 1007.9 - 0.0 - - - - - - -
25/04:30pm 18.6 W 14 23 1007.5 - 0.0 - - - - - - -
25/04:00pm 17.0 WSW 12 17 1007.6 - 0.0 - - - - - - -
25/03:30pm 15.8 WSW 12 19 1007.2 - 0.0 - - - - - - -
25/03:00pm 16.5 W 15 22 1006.8 - 0.0 - - - - - - -
25/02:30pm 16.7 WSW 17 25 1006.4 - 0.0 - - - - - - -
25/02:00pm 18.1 W 21 32 1005.8 - 0.0 - - - - - - -
25/01:40pm 18.4 W 19 31 1006.0 - 0.0 - - - - - - -
25/01:30pm 18.3 WSW 20 25 1006.1 - 0.0 - - - - - - -
25/01:02pm 17.5 WSW 20 30 1006.0 - 0.0 - - - - - - -
25/01:00pm 17.3 WSW 21 26 1006.0 - 0.0 - - - - - - -
25/12:51pm 17.6 W 23 34 1005.6 - 0.0 - - - - - - -

Other Formats:

Comma delimited format used in spreadsheet applications
http://www.bom.gov.au/fwo/IDT60701/IDT60701.95988.axf

JavaScript Object Notation format (JSON) in row-major order
http://www.bom.gov.au/fwo/IDT60701/IDT60701.95988.json